Anzali, Iran

2:16 PM +0430 on March 30, 2017 (GMT +0430)
Rasht | | Change Station

Elev -39 ft 37.33 °N, 49.61 °E | Updated 16 minutes ago

Partly Cloudy
Partly Cloudy
61 °F
Feels Like 61 °F
N
5
Wind Variable Wind from East

Today
High -- | Low -- °F
--% Chance of Precip.
Yesterday
High -- | Low -- °F
Precip. -- in
Pressure 30.18 in
Visibility 5.0 miles
Clouds Few 2000 ft
Dew Point 48 °F
Humidity 63%
Rainfall 0.00 in
Snow Depth Not available.
7:00 AM 7:32 PM
Waxing Crescent, 7% visible
METAR OIGG 300930Z 09004KT 8000 FEW020 16/09 Q1022
Pressure 30.18 in
Visibility 5.0 miles
Clouds Few 2000 ft
Dew Point 48 °F
Humidity 63%
Rainfall 0.00 in
Snow Depth Not available.
7:00 AM 7:32 PM
Waxing Crescent, 7% visible
METAR OIGG 300930Z 09004KT 8000 FEW020 16/09 Q1022

Get Severe Weather Alerts

Thanks for signing up!

Be on the lookout for a verification email in your inbox.

You'll start receiving the daily forecast at 8 AM.

×

10-Day Weather Forecast

No radar image for this location.
×

Almanac

Astronomy

Mar. 30, 2017 Rise Set
Actual Time
Civil Twilight
Nautical Twilight
Astronomical Twilight
Moon
Length of Visible Light
Length of Day
Tomorrow will be .
, % of the Moon is Illuminated

Today's Extremes

Country Highs Country Lows

Community

WunderPhotos

Upload Photos

1,962,540 photos uploaded!

WunderBlog® & News

Nearby

Air Quality

  Air Quality AQ Index Pollutant
Not available.

Snow Depth

Station Depth Elevation

Earthquake Activity

City Distance Mag. Time & Date
Minimum magnitude displayed is 2.5.

Earthquake Activity

City Distance Mag. Time & Date
Minimum magnitude displayed is 2.5.

Coastal Water Temperatures

Place Temperature

Stations

Nearby Weather Stations

Station Location Temp. Windchill Dew Point Humidity Wind Precip. Elev Updated Type